createdAt,value
2023-03-22T00:02:17.318Z,10.91
2023-03-22T00:04:45.224Z,10.92
2023-03-22T00:07:13.217Z,10.92
2023-03-22T00:09:41.061Z,10.91
2023-03-22T00:12:08.988Z,10.91
2023-03-22T00:14:36.843Z,10.90
2023-03-22T00:17:04.723Z,10.88
2023-03-22T00:19:34.112Z,10.89
2023-03-22T00:22:03.627Z,10.89
2023-03-22T00:24:32.024Z,10.89
2023-03-22T00:27:00.992Z,10.87
2023-03-22T00:29:28.867Z,10.87
2023-03-22T00:31:56.709Z,10.86
2023-03-22T00:34:24.685Z,10.86
2023-03-22T00:36:52.573Z,10.86
2023-03-22T00:39:20.978Z,10.88
2023-03-22T00:41:48.843Z,10.89
2023-03-22T00:44:16.892Z,10.91
2023-03-22T00:46:45.926Z,10.92
2023-03-22T00:49:13.905Z,10.94
2023-03-22T00:51:41.766Z,10.94
2023-03-22T00:54:09.609Z,10.94
2023-03-22T00:56:38.495Z,10.93
2023-03-22T00:59:13.931Z,10.92
2023-03-22T01:01:43.216Z,10.93
2023-03-22T01:04:15.409Z,10.93
2023-03-22T01:06:44.756Z,10.91
2023-03-22T01:09:15.372Z,10.91
2023-03-22T01:11:44.197Z,10.91
2023-03-22T01:14:13.983Z,10.91
2023-03-22T01:16:42.193Z,10.89
2023-03-22T01:19:10.654Z,10.88
2023-03-22T01:21:38.842Z,10.88
2023-03-22T01:24:07.245Z,10.87
2023-03-22T01:26:35.851Z,10.83
2023-03-22T01:29:03.860Z,10.80
2023-03-22T01:31:31.863Z,10.79
2023-03-22T01:33:59.740Z,10.80
2023-03-22T01:36:27.757Z,10.79
2023-03-22T01:38:56.448Z,10.80
2023-03-22T01:41:25.425Z,10.80
2023-03-22T01:44:13.835Z,10.81
2023-03-22T01:46:45.466Z,10.82
2023-03-22T01:49:26.003Z,10.83
2023-03-22T01:52:00.736Z,10.82
2023-03-22T01:54:47.034Z,10.82
2023-03-22T01:57:41.714Z,10.82
2023-03-22T02:00:15.809Z,10.81
2023-03-22T02:03:06.375Z,10.81
2023-03-22T02:05:38.732Z,10.84
2023-03-22T02:08:09.003Z,10.84
2023-03-22T02:10:55.730Z,10.83
2023-03-22T02:13:42.456Z,10.83
2023-03-22T02:17:06.253Z,10.83
2023-03-22T02:19:54.187Z,10.82
2023-03-22T02:22:28.364Z,10.81
2023-03-22T02:25:33.938Z,10.80
2023-03-22T02:28:24.648Z,10.77
2023-03-22T02:31:16.694Z,10.74
2023-03-22T02:34:15.706Z,10.71
2023-03-22T02:37:08.366Z,10.72
2023-03-22T02:39:57.758Z,10.70
2023-03-22T02:42:41.951Z,10.70
2023-03-22T02:45:24.876Z,10.71
2023-03-22T02:48:05.718Z,10.73
2023-03-22T02:50:51.400Z,10.71
2023-03-22T02:53:33.234Z,10.71
2023-03-22T02:56:14.855Z,10.69
2023-03-22T02:58:49.139Z,10.67
2023-03-22T03:01:27.262Z,10.65
2023-03-22T03:04:01.249Z,10.62
2023-03-22T03:06:35.804Z,10.61
2023-03-22T03:09:05.380Z,10.57
2023-03-22T03:11:33.941Z,10.57
2023-03-22T03:14:01.980Z,10.54
2023-03-22T03:16:36.727Z,10.54
2023-03-22T03:19:27.992Z,10.54
2023-03-22T03:22:40.587Z,10.53
2023-03-22T03:25:29.875Z,10.50
2023-03-22T03:28:30.324Z,10.48
2023-03-22T03:31:16.293Z,10.46
2023-03-22T03:34:09.632Z,10.47
2023-03-22T03:36:46.168Z,10.47
2023-03-22T03:39:17.609Z,10.46
2023-03-22T03:41:49.973Z,10.47
2023-03-22T03:44:19.338Z,10.47
2023-03-22T03:46:48.993Z,10.47
2023-03-22T03:49:18.119Z,10.48
2023-03-22T03:51:49.972Z,10.47
2023-03-22T03:54:18.043Z,10.48
2023-03-22T03:56:47.806Z,10.47
2023-03-22T03:59:18.063Z,10.47
2023-03-22T04:01:51.696Z,10.45
2023-03-22T04:04:28.221Z,10.43
2023-03-22T04:07:06.587Z,10.42
2023-03-22T04:09:39.109Z,10.40
2023-03-22T04:12:17.065Z,10.38
2023-03-22T04:14:49.516Z,10.36
2023-03-22T04:17:23.103Z,10.35
2023-03-22T04:19:53.513Z,10.35
2023-03-22T04:22:21.442Z,10.34
2023-03-22T04:24:52.406Z,10.35
2023-03-22T04:27:22.516Z,10.36
2023-03-22T04:30:01.002Z,10.34
2023-03-22T04:32:48.382Z,10.34
2023-03-22T04:35:17.694Z,10.33
2023-03-22T04:37:45.808Z,10.31
2023-03-22T04:40:16.843Z,10.31
2023-03-22T04:43:04.200Z,10.31
2023-03-22T04:45:46.232Z,10.30
2023-03-22T04:48:17.573Z,10.32
2023-03-22T04:50:45.717Z,10.31
2023-03-22T04:53:13.692Z,10.30
2023-03-22T04:55:43.013Z,10.30
2023-03-22T04:58:11.198Z,10.31
2023-03-22T05:00:39.284Z,10.31
2023-03-22T05:03:07.373Z,10.31
2023-03-22T05:05:49.035Z,10.32
2023-03-22T05:08:16.971Z,10.31
2023-03-22T05:10:47.258Z,10.31
2023-03-22T05:13:15.369Z,10.31
2023-03-22T05:15:49.107Z,10.32
2023-03-22T05:18:21.585Z,10.32
2023-03-22T05:20:49.886Z,10.31
2023-03-22T05:23:21.171Z,10.30
2023-03-22T05:25:53.418Z,10.30
2023-03-22T05:28:22.374Z,10.30
2023-03-22T05:31:05.556Z,10.31
2023-03-22T05:33:41.872Z,10.31
2023-03-22T05:36:13.600Z,10.32
2023-03-22T05:38:56.718Z,10.31
2023-03-22T05:41:24.814Z,10.31
2023-03-22T05:43:52.628Z,10.31
2023-03-22T05:46:21.193Z,10.31
2023-03-22T05:49:07.297Z,10.30
2023-03-22T05:51:41.707Z,10.30
2023-03-22T05:54:10.441Z,10.30
2023-03-22T05:56:44.138Z,10.30
2023-03-22T05:59:11.997Z,10.31
2023-03-22T06:01:40.136Z,10.32
2023-03-22T06:04:18.760Z,10.32
2023-03-22T06:06:56.457Z,10.31
2023-03-22T06:09:44.988Z,10.32
2023-03-22T06:12:17.123Z,10.33
2023-03-22T06:14:48.492Z,10.35
2023-03-22T06:17:42.378Z,10.37
2023-03-22T06:20:14.561Z,10.38
2023-03-22T06:22:46.729Z,10.39
2023-03-22T06:25:14.928Z,10.41
2023-03-22T06:27:45.891Z,10.43
2023-03-22T06:30:14.314Z,10.46
2023-03-22T06:33:06.199Z,10.47
2023-03-22T06:35:36.937Z,10.50
2023-03-22T06:38:05.384Z,10.52
2023-03-22T06:40:35.720Z,10.56
2023-03-22T06:43:07.015Z,10.59
2023-03-22T06:45:36.000Z,10.62
2023-03-22T06:48:04.514Z,10.63
2023-03-22T06:50:45.074Z,10.65
2023-03-22T06:53:15.968Z,10.68
2023-03-22T06:55:44.454Z,10.68
2023-03-22T06:58:15.436Z,10.68
2023-03-22T07:00:43.350Z,10.70
2023-03-22T07:03:11.537Z,10.71
2023-03-22T07:05:46.762Z,10.74
2023-03-22T07:08:14.661Z,10.75
2023-03-22T07:10:51.329Z,10.78
2023-03-22T07:13:21.388Z,10.81
2023-03-22T07:15:49.896Z,10.83
2023-03-22T07:18:33.615Z,10.85
2023-03-22T07:21:01.462Z,10.85
2023-03-22T07:23:29.845Z,10.88
2023-03-22T07:26:01.932Z,10.91
2023-03-22T07:28:33.478Z,10.95
2023-03-22T07:31:12.761Z,10.98
2023-03-22T07:33:54.850Z,11.01
2023-03-22T07:36:25.618Z,11.05
2023-03-22T07:38:54.304Z,11.07
2023-03-22T07:41:34.870Z,11.10
2023-03-22T07:44:22.481Z,11.09
2023-03-22T07:47:06.654Z,11.10
2023-03-22T07:49:41.180Z,11.10
2023-03-22T07:52:13.729Z,11.14
2023-03-22T07:54:41.822Z,11.16
2023-03-22T07:57:10.598Z,11.19
2023-03-22T07:59:44.239Z,11.25
2023-03-22T08:02:13.049Z,11.27
2023-03-22T08:04:45.390Z,11.29
2023-03-22T08:07:39.414Z,11.27
2023-03-22T08:10:08.120Z,11.25
2023-03-22T08:12:36.060Z,11.24
2023-03-22T08:15:11.349Z,11.20
2023-03-22T08:17:40.267Z,11.17
2023-03-22T08:20:14.192Z,11.15
2023-03-22T08:22:47.531Z,11.16
2023-03-22T08:25:27.787Z,11.19
2023-03-22T08:27:58.597Z,11.22
2023-03-22T08:30:28.097Z,11.26
2023-03-22T08:32:56.471Z,11.29
2023-03-22T08:35:24.565Z,11.33
2023-03-22T08:37:56.865Z,11.43
2023-03-22T08:40:28.416Z,11.59
2023-03-22T08:43:00.849Z,11.72
2023-03-22T08:45:29.861Z,11.82
2023-03-22T08:48:04.540Z,11.91
2023-03-22T08:50:37.655Z,12.04
2023-03-22T08:53:14.731Z,12.23
2023-03-22T08:55:47.469Z,12.37
2023-03-22T08:58:33.513Z,12.60
2023-03-22T09:01:21.211Z,12.74
2023-03-22T09:03:53.998Z,12.77
2023-03-22T09:06:22.260Z,12.82
2023-03-22T09:08:52.167Z,12.90
2023-03-22T09:11:22.925Z,12.94
2023-03-22T09:13:51.954Z,13.01
2023-03-22T09:16:20.034Z,13.08
2023-03-22T09:18:48.247Z,13.12
2023-03-22T09:21:18.327Z,13.10
2023-03-22T09:23:51.195Z,13.15
2023-03-22T09:26:22.653Z,13.23
2023-03-22T09:28:52.252Z,13.27
2023-03-22T09:31:20.790Z,13.27
2023-03-22T09:33:52.360Z,13.24
2023-03-22T09:36:20.984Z,13.16
2023-03-22T09:38:50.030Z,13.02
2023-03-22T09:41:28.708Z,12.74
2023-03-22T09:44:05.290Z,12.43
2023-03-22T09:46:44.297Z,12.07
2023-03-22T09:49:22.553Z,11.75
2023-03-22T09:51:55.584Z,11.52
2023-03-22T09:54:35.962Z,11.33
2023-03-22T09:57:28.652Z,11.19
2023-03-22T10:01:09.536Z,11.12
2023-03-22T10:03:52.654Z,11.04
2023-03-22T10:06:28.299Z,11.13
2023-03-22T10:09:14.017Z,11.25
2023-03-22T10:11:56.481Z,11.30
2023-03-22T10:14:34.288Z,11.46
2023-03-22T10:17:11.732Z,11.66
2023-03-22T10:19:48.677Z,11.81
2023-03-22T10:22:22.535Z,11.86
2023-03-22T10:24:53.483Z,11.93
2023-03-22T10:27:23.654Z,12.08
2023-03-22T10:30:24.804Z,12.27
2023-03-22T10:33:03.220Z,12.48
2023-03-22T10:35:33.323Z,12.67
2023-03-22T10:38:07.281Z,12.93
2023-03-22T10:40:37.531Z,13.18
2023-03-22T10:43:20.441Z,13.53
2023-03-22T10:45:50.921Z,13.82
2023-03-22T10:48:36.274Z,14.08
2023-03-22T10:51:05.050Z,14.20
2023-03-22T10:53:47.508Z,14.16
2023-03-22T10:56:20.090Z,14.20
2023-03-22T10:58:51.086Z,14.32
2023-03-22T11:01:27.628Z,14.50
2023-03-22T11:04:05.887Z,14.81
2023-03-22T11:06:40.070Z,15.11
2023-03-22T11:09:16.553Z,15.26
2023-03-22T11:11:54.380Z,15.42
2023-03-22T11:14:36.860Z,15.38
2023-03-22T11:17:12.624Z,15.24
2023-03-22T11:19:55.085Z,14.97
2023-03-22T11:22:37.704Z,14.74
2023-03-22T11:25:17.869Z,14.70
2023-03-22T11:28:17.947Z,14.67
2023-03-22T11:31:03.159Z,14.53
2023-03-22T11:33:32.176Z,14.48
2023-03-22T11:36:16.248Z,14.68
2023-03-22T11:38:46.363Z,15.06
2023-03-22T11:41:30.481Z,15.25
2023-03-22T11:44:22.721Z,15.44
2023-03-22T11:46:57.921Z,15.63
2023-03-22T11:49:38.056Z,15.67
2023-03-22T11:52:19.251Z,15.57
2023-03-22T11:54:47.738Z,15.63
2023-03-22T11:57:25.435Z,15.77
2023-03-22T12:00:24.754Z,15.85
2023-03-22T12:03:15.824Z,15.68
2023-03-22T12:05:47.891Z,15.50
2023-03-22T12:08:28.236Z,15.32
2023-03-22T12:11:06.483Z,15.08
2023-03-22T12:14:02.257Z,14.91
2023-03-22T12:16:46.485Z,14.83
2023-03-22T12:19:40.695Z,14.88
2023-03-22T12:22:18.205Z,15.04
2023-03-22T12:24:46.241Z,15.18
2023-03-22T12:27:39.822Z,15.30
2023-03-22T12:30:22.899Z,15.25
2023-03-22T12:33:14.589Z,15.15
2023-03-22T12:35:46.555Z,15.00
2023-03-22T12:38:33.895Z,14.84
2023-03-22T12:41:08.133Z,14.79
2023-03-22T12:43:55.781Z,14.82
2023-03-22T12:46:33.497Z,14.85
2023-03-22T12:49:19.331Z,14.85
2023-03-22T12:51:50.259Z,14.83
2023-03-22T12:54:23.110Z,14.88
2023-03-22T12:56:52.132Z,15.01
2023-03-22T12:59:27.929Z,15.09
2023-03-22T13:02:13.000Z,15.13
2023-03-22T13:04:43.188Z,15.12
2023-03-22T13:07:34.340Z,15.05
2023-03-22T13:10:30.949Z,15.00
2023-03-22T13:13:24.248Z,15.04
2023-03-22T13:16:13.548Z,15.10
2023-03-22T13:18:44.143Z,15.14
2023-03-22T13:21:22.344Z,15.16
2023-03-22T13:23:55.240Z,15.16
2023-03-22T13:26:54.399Z,15.11
2023-03-22T13:29:25.652Z,15.03
2023-03-22T13:31:58.420Z,14.98
2023-03-22T13:34:46.894Z,14.93
2023-03-22T13:37:42.196Z,14.90
2023-03-22T13:40:42.362Z,14.92
2023-03-22T13:43:27.204Z,14.99
2023-03-22T13:46:17.843Z,15.09
2023-03-22T13:48:49.250Z,15.09
2023-03-22T13:51:25.213Z,15.15
2023-03-22T13:54:18.059Z,15.15
2023-03-22T13:57:01.359Z,15.09
2023-03-22T14:00:13.550Z,15.05
2023-03-22T14:02:45.701Z,15.07
2023-03-22T14:05:22.927Z,15.12
2023-03-22T14:07:56.290Z,15.21
2023-03-22T14:10:46.523Z,15.36
2023-03-22T14:13:26.062Z,15.50
2023-03-22T14:16:02.402Z,15.68
2023-03-22T14:18:34.480Z,15.70
2023-03-22T14:21:09.235Z,15.65
